CheckWX is a tool to help pilots better visualize weather data.  It is not intended as a substitute for an official pre-flight weather briefing.

10:23:57 UTC

KLGU METAR
Logan-Cache Airport
Logan, Utah, USA
Current

33 mins ago

KLGU 280951Z AUTO 13003KT 10SM OVC055 02/M03 A3028 RMK AO2 SLP257 T00171033
Observed
Jan-28 @ 09:51 UTC
Wind
  • 130° at 3 KTS
Visibility
10 SM
Flight Rules
VFR
Cloud Levels
  • Overcast at 5,500' AGL
Temperature
C / 36°F
Dewpoint
-3°C / 27°F
Humidity
70%
Altimeter
30.28" Hg
Pressure
1025.42 hPa
Previous

2 hours ago

KLGU 280851Z AUTO 09003KT 10SM BKN060 01/M04 A3028 RMK AO2 SLP260 T00061044 55002
Observed
Jan-28 @ 08:51 UTC
Wind
  • 090° at 3 KTS
Visibility
10 SM
Flight Rules
VFR
Cloud Levels
  • Broken at 6,000' AGL
Temperature
C / 34°F
Dewpoint
-4°C / 25°F
Humidity
70%
Altimeter
30.28" Hg
Pressure
1025.42 hPa
Previous

3 hours ago

KLGU 280751Z AUTO 27003KT 10SM OVC060 01/M04 A3028 RMK AO2 SLP258 T00061044
Observed
Jan-28 @ 07:51 UTC
Wind
  • 270° at 3 KTS
Visibility
10 SM
Flight Rules
VFR
Cloud Levels
  • Overcast at 6,000' AGL
Temperature
C / 34°F
Dewpoint
-4°C / 25°F
Humidity
70%
Altimeter
30.28" Hg
Pressure
1025.42 hPa